createdAt,value
2023-05-04T00:00:52.070Z,9.719489
2023-05-04T00:01:51.991Z,9.719402
2023-05-04T00:02:52.066Z,9.719380
2023-05-04T00:03:52.218Z,9.719338
2023-05-04T00:04:52.112Z,9.719243
2023-05-04T00:05:51.957Z,9.719237
2023-05-04T00:06:51.924Z,9.719256
2023-05-04T00:07:51.921Z,9.719185
2023-05-04T00:08:51.953Z,9.719399
2023-05-04T00:09:51.900Z,9.719344
2023-05-04T00:10:51.900Z,9.719259
2023-05-04T00:11:51.885Z,9.719324
2023-05-04T00:12:51.927Z,9.719225
2023-05-04T00:13:51.928Z,9.719310
2023-05-04T00:14:51.851Z,9.719724
2023-05-04T00:15:51.867Z,9.719529
2023-05-04T00:16:52.828Z,9.719592
2023-05-04T00:17:51.841Z,9.719891
2023-05-04T00:18:51.804Z,9.719541
2023-05-04T00:19:51.801Z,9.719430
2023-05-04T00:20:51.813Z,9.719260
2023-05-04T00:21:51.769Z,9.719460
2023-05-04T00:22:51.769Z,9.719612
2023-05-04T00:23:51.759Z,9.719673
2023-05-04T00:24:51.754Z,9.719507
2023-05-04T00:25:51.758Z,9.719438
2023-05-04T00:26:51.733Z,9.719504
2023-05-04T00:27:51.735Z,9.719525
2023-05-04T00:28:51.732Z,9.719487
2023-05-04T00:29:51.689Z,9.719512
2023-05-04T00:30:51.714Z,9.719531
2023-05-04T00:31:51.762Z,9.719720
2023-05-04T00:32:51.689Z,9.719671
2023-05-04T00:33:51.696Z,9.719669
2023-05-04T00:34:51.653Z,9.719649
2023-05-04T00:35:51.669Z,9.719617
2023-05-04T00:36:51.636Z,9.719418
2023-05-04T00:37:51.609Z,9.719336
2023-05-04T00:38:51.724Z,9.719439
2023-05-04T00:39:51.594Z,9.719396
2023-05-04T00:40:51.589Z,9.719417
2023-05-04T00:41:51.622Z,9.719343
2023-05-04T00:42:51.604Z,9.719431
2023-05-04T00:43:51.566Z,9.719382
2023-05-04T00:44:51.551Z,9.719295
2023-05-04T00:45:51.550Z,9.719329
2023-05-04T00:46:51.554Z,9.719414
2023-05-04T00:47:51.621Z,9.719354
2023-05-04T00:48:51.504Z,9.719291
2023-05-04T00:49:51.526Z,9.719321
2023-05-04T00:50:51.534Z,9.719289
2023-05-04T00:51:51.486Z,9.719243
2023-05-04T00:52:51.465Z,9.719346
2023-05-04T00:53:51.462Z,9.719383
2023-05-04T00:54:51.492Z,9.719284
2023-05-04T00:55:51.469Z,9.719274
2023-05-04T00:56:51.425Z,9.719306
2023-05-04T00:57:51.425Z,9.719445
2023-05-04T00:58:51.411Z,9.719378
2023-05-04T00:59:51.427Z,9.719315
2023-05-04T01:00:51.432Z,9.719291
2023-05-04T01:01:51.400Z,9.719310
2023-05-04T01:02:51.395Z,9.719383
2023-05-04T01:03:51.414Z,9.719357
2023-05-04T01:04:51.386Z,9.719326
2023-05-04T01:05:51.334Z,9.719371
2023-05-04T01:06:51.346Z,9.719338
2023-05-04T01:07:51.378Z,9.719364
2023-05-04T01:08:51.330Z,9.719333
2023-05-04T01:09:51.306Z,9.719166
2023-05-04T01:10:51.303Z,9.719273
2023-05-04T01:11:51.282Z,9.719385
2023-05-04T01:12:51.364Z,9.719345
2023-05-04T01:13:51.290Z,9.719348
2023-05-04T01:14:51.247Z,9.719698
2023-05-04T01:15:51.247Z,9.719494
2023-05-04T01:16:51.298Z,9.719467
2023-05-04T01:17:51.278Z,9.719301
2023-05-04T01:18:51.242Z,9.719166
2023-05-04T01:19:51.190Z,9.719254
2023-05-04T01:20:51.187Z,9.719026
2023-05-04T01:21:51.220Z,9.719015
2023-05-04T01:22:51.206Z,9.719019
2023-05-04T01:23:51.178Z,9.718942
2023-05-04T01:24:51.175Z,9.719628
2023-05-04T01:25:51.174Z,9.719193
2023-05-04T01:26:51.142Z,9.719188
2023-05-04T01:27:51.109Z,9.719323
2023-05-04T01:28:51.104Z,9.719288
2023-05-04T01:29:51.115Z,9.719075
2023-05-04T01:30:51.175Z,9.719254
2023-05-04T01:31:51.074Z,9.719266
2023-05-04T01:32:51.159Z,9.719363
2023-05-04T01:33:51.066Z,9.719379
2023-05-04T01:34:51.079Z,9.719290
2023-05-04T01:35:51.059Z,9.719239
2023-05-04T01:36:51.056Z,9.719177
2023-05-04T01:37:51.035Z,9.719235
2023-05-04T01:38:51.026Z,9.719206
2023-05-04T01:39:51.015Z,9.719297
2023-05-04T01:40:50.996Z,9.719281
2023-05-04T01:41:51.039Z,9.719298
2023-05-04T01:42:50.951Z,9.719296
2023-05-04T01:43:52.021Z,9.719311
2023-05-04T01:44:50.998Z,9.719355
2023-05-04T01:45:50.969Z,9.719348
2023-05-04T01:46:50.937Z,9.719305
2023-05-04T01:47:50.999Z,9.719245
2023-05-04T01:48:50.905Z,9.719253
2023-05-04T01:49:50.926Z,9.719252
2023-05-04T01:50:50.898Z,9.719233
2023-05-04T01:51:50.921Z,9.719275
2023-05-04T01:52:50.886Z,9.719279
2023-05-04T01:53:50.880Z,9.719264
2023-05-04T01:54:50.873Z,9.719301
2023-05-04T01:55:50.841Z,9.719285
2023-05-04T01:56:50.836Z,9.719339
2023-05-04T01:57:50.846Z,9.719278
2023-05-04T01:58:50.798Z,9.719316
2023-05-04T01:59:50.853Z,9.719328
2023-05-04T02:00:50.907Z,9.719194
2023-05-04T02:01:50.861Z,9.719234
2023-05-04T02:02:50.920Z,9.719173
2023-05-04T02:03:50.803Z,9.719150
2023-05-04T02:04:50.742Z,9.719101
2023-05-04T02:05:50.742Z,9.719255
2023-05-04T02:06:50.750Z,9.719390
2023-05-04T02:07:50.763Z,9.719261
2023-05-04T02:08:50.722Z,9.719345
2023-05-04T02:09:50.696Z,9.719237
2023-05-04T02:10:50.737Z,9.719121
2023-05-04T02:11:50.689Z,9.718920
2023-05-04T02:12:50.737Z,9.718982
2023-05-04T02:13:50.658Z,9.719197
2023-05-04T02:14:50.635Z,9.719199
2023-05-04T02:15:50.707Z,9.719195
2023-05-04T02:16:50.632Z,9.719173
2023-05-04T02:17:50.691Z,9.719201
2023-05-04T02:18:50.647Z,9.719187
2023-05-04T02:19:50.642Z,9.719182
2023-05-04T02:20:50.603Z,9.719234
2023-05-04T02:21:50.587Z,9.719165
2023-05-04T02:22:50.601Z,9.719174
2023-05-04T02:23:50.581Z,9.719198
2023-05-04T02:24:50.546Z,9.719316
2023-05-04T02:25:50.571Z,9.719199
2023-05-04T02:26:50.518Z,9.719260
2023-05-04T02:27:50.522Z,9.719343
2023-05-04T02:28:50.541Z,9.719417
2023-05-04T02:29:50.568Z,9.719409
2023-05-04T02:30:50.488Z,9.719321
2023-05-04T02:31:50.576Z,9.719418
2023-05-04T02:32:50.503Z,9.719382
2023-05-04T02:33:50.466Z,9.719401
2023-05-04T02:34:50.477Z,9.719434
2023-05-04T02:35:50.479Z,9.719502
2023-05-04T02:36:50.461Z,9.719472
2023-05-04T02:37:50.447Z,9.719342
2023-05-04T02:38:50.426Z,9.719285
2023-05-04T02:39:50.413Z,9.719309
2023-05-04T02:40:50.400Z,9.719265
2023-05-04T02:41:50.416Z,9.719331
2023-05-04T02:42:50.409Z,9.719325
2023-05-04T02:43:50.393Z,9.719179
2023-05-04T02:44:50.374Z,9.719243
2023-05-04T02:45:50.371Z,9.719276
2023-05-04T02:46:50.340Z,9.719327
2023-05-04T02:47:50.387Z,9.719246
2023-05-04T02:48:50.350Z,9.719290
2023-05-04T02:49:50.306Z,9.719228
2023-05-04T02:50:50.301Z,9.719272
2023-05-04T02:51:50.289Z,9.719252
2023-05-04T02:52:50.314Z,9.719288
2023-05-04T02:53:50.314Z,9.719217
2023-05-04T02:54:52.910Z,9.719265
2023-05-04T02:55:50.314Z,9.719321
2023-05-04T02:56:50.280Z,9.719277
2023-05-04T02:57:50.257Z,9.719222
2023-05-04T02:58:50.232Z,9.719261
2023-05-04T02:59:50.267Z,9.719218
2023-05-04T03:00:50.243Z,9.719259
2023-05-04T03:01:50.206Z,9.719263
2023-05-04T03:02:50.263Z,9.719343
2023-05-04T03:03:50.196Z,9.719365
2023-05-04T03:04:50.178Z,9.719158
2023-05-04T03:05:50.193Z,9.719198
2023-05-04T03:06:50.144Z,9.719218
2023-05-04T03:07:50.157Z,9.719274
2023-05-04T03:08:50.123Z,9.719388
2023-05-04T03:09:50.111Z,9.719106
2023-05-04T03:10:50.109Z,9.718937
2023-05-04T03:11:50.092Z,9.719215
2023-05-04T03:12:50.186Z,9.719156
2023-05-04T03:13:50.073Z,9.719378
2023-05-04T03:14:50.069Z,9.719345
2023-05-04T03:15:50.049Z,9.719270
2023-05-04T03:16:50.118Z,9.719252
2023-05-04T03:17:50.150Z,9.719219
2023-05-04T03:19:00.584Z,9.719214
2023-05-04T03:19:50.031Z,9.719113
2023-05-04T03:21:21.912Z,9.719339
2023-05-04T03:21:49.988Z,9.719236
2023-05-04T03:22:49.995Z,9.719311
2023-05-04T03:23:49.983Z,9.719247
2023-05-04T03:24:49.993Z,9.719239
2023-05-04T03:25:49.964Z,9.719290
2023-05-04T03:26:49.948Z,9.719202
2023-05-04T03:27:49.956Z,9.719166
2023-05-04T03:28:49.954Z,9.719219
2023-05-04T03:29:49.908Z,9.719416
2023-05-04T03:30:49.927Z,9.719312
2023-05-04T03:31:49.901Z,9.719421
2023-05-04T03:32:49.937Z,9.719070
2023-05-04T03:33:49.887Z,9.719093
2023-05-04T03:34:49.893Z,9.719336
2023-05-04T03:35:49.841Z,9.719355
2023-05-04T03:36:49.833Z,9.719160
2023-05-04T03:37:49.831Z,9.719381
2023-05-04T03:38:49.807Z,9.719736
2023-05-04T03:39:49.812Z,9.719340
2023-05-04T03:40:49.795Z,9.718842
2023-05-04T03:41:49.789Z,9.719090
2023-05-04T03:42:49.793Z,9.719232
2023-05-04T03:43:49.828Z,9.719193
2023-05-04T03:44:49.752Z,9.718910
2023-05-04T03:45:49.783Z,9.718853
2023-05-04T03:46:49.764Z,9.719189
2023-05-04T03:47:49.789Z,9.719020
2023-05-04T03:48:49.720Z,9.718926
2023-05-04T03:49:49.705Z,9.718774
2023-05-04T03:50:49.742Z,9.719178
2023-05-04T03:51:49.799Z,9.719166
2023-05-04T03:52:49.689Z,9.719012
2023-05-04T03:53:49.668Z,9.719104
2023-05-04T03:54:49.661Z,9.718975
2023-05-04T03:55:49.656Z,9.718850
2023-05-04T03:56:49.656Z,9.719316
2023-05-04T03:57:49.667Z,9.719079
2023-05-04T03:58:49.614Z,9.719158
2023-05-04T03:59:49.621Z,9.718849
2023-05-04T04:00:49.614Z,9.718847
2023-05-04T04:01:49.585Z,9.719063
2023-05-04T04:02:49.644Z,9.719067
2023-05-04T04:03:49.734Z,9.718830
2023-05-04T04:04:49.593Z,9.718751
2023-05-04T04:05:49.551Z,9.719010
2023-05-04T04:06:49.560Z,9.718737
2023-05-04T04:07:49.531Z,9.718753
2023-05-04T04:08:49.514Z,9.718810
2023-05-04T04:09:49.521Z,9.718909
2023-05-04T04:10:49.491Z,9.719108
2023-05-04T04:11:49.494Z,9.719142
2023-05-04T04:12:49.511Z,9.719107
2023-05-04T04:13:49.468Z,9.718961
2023-05-04T04:14:49.480Z,9.718899
2023-05-04T04:15:49.551Z,9.719134
2023-05-04T04:16:49.470Z,9.719192
2023-05-04T04:17:49.486Z,9.719085
2023-05-04T04:18:49.414Z,9.718935
2023-05-04T04:19:49.412Z,9.719026
2023-05-04T04:20:49.401Z,9.719052
2023-05-04T04:21:49.414Z,9.719056
2023-05-04T04:22:49.372Z,9.719125
2023-05-04T04:23:49.390Z,9.719110
2023-05-04T04:24:49.370Z,9.719124
2023-05-04T04:25:49.375Z,9.719144
2023-05-04T04:26:49.349Z,9.719209
2023-05-04T04:27:49.328Z,9.719142
2023-05-04T04:28:49.318Z,9.719151
2023-05-04T04:29:49.342Z,9.719194
2023-05-04T04:30:49.328Z,9.719082
2023-05-04T04:31:49.315Z,9.719113
2023-05-04T04:32:49.282Z,9.719261
2023-05-04T04:33:49.265Z,9.719260
2023-05-04T04:34:49.261Z,9.719256
2023-05-04T04:35:49.301Z,9.719215
2023-05-04T04:36:49.259Z,9.719308
2023-05-04T04:37:49.233Z,9.719312
2023-05-04T04:38:49.235Z,9.719186
2023-05-04T04:39:49.213Z,9.719195
2023-05-04T04:40:49.236Z,9.719235
2023-05-04T04:41:49.220Z,9.719338
2023-05-04T04:42:49.183Z,9.719115
2023-05-04T04:43:49.189Z,9.719138
2023-05-04T04:44:49.161Z,9.719201
2023-05-04T04:45:49.150Z,9.719247
2023-05-04T04:46:49.206Z,9.719195
2023-05-04T04:47:49.189Z,9.719219
2023-05-04T04:48:49.158Z,9.718966
2023-05-04T04:49:49.112Z,9.719043
2023-05-04T04:50:49.095Z,9.719101
2023-05-04T04:51:49.100Z,9.719217
2023-05-04T04:52:49.105Z,9.719351
2023-05-04T04:53:49.065Z,9.719351
2023-05-04T04:54:49.061Z,9.719003
2023-05-04T04:55:49.045Z,9.718445
2023-05-04T04:56:49.046Z,9.718796
2023-05-04T04:57:49.056Z,9.718983
2023-05-04T04:58:49.008Z,9.719268
2023-05-04T04:59:49.030Z,9.719400
2023-05-04T05:00:49.085Z,9.719132
2023-05-04T05:01:48.991Z,9.719328
2023-05-04T05:02:49.006Z,9.718913
2023-05-04T05:03:48.987Z,9.718462
2023-05-04T05:04:48.978Z,9.718238
2023-05-04T05:05:48.936Z,9.718900
2023-05-04T05:06:48.940Z,9.719173
2023-05-04T05:07:48.924Z,9.719150
2023-05-04T05:08:48.937Z,9.719069
2023-05-04T05:09:48.902Z,9.719541
2023-05-04T05:10:48.943Z,9.719329
2023-05-04T05:11:48.878Z,9.719208
2023-05-04T05:12:48.930Z,9.719147
2023-05-04T05:13:48.873Z,9.719528
2023-05-04T05:14:48.903Z,9.719621
2023-05-04T05:15:48.831Z,9.719297
2023-05-04T05:16:48.902Z,9.719577
2023-05-04T05:17:48.820Z,9.719805
2023-05-04T05:18:48.808Z,9.719458
2023-05-04T05:19:48.803Z,9.719579
2023-05-04T05:20:48.835Z,9.719466
2023-05-04T05:21:48.804Z,9.719337
2023-05-04T05:22:48.813Z,9.719167
2023-05-04T05:23:48.784Z,9.719167
2023-05-04T05:24:48.747Z,9.719268
2023-05-04T05:25:48.739Z,9.719250
2023-05-04T05:26:48.746Z,9.719342
2023-05-04T05:27:48.712Z,9.719481
2023-05-04T05:28:48.709Z,9.719523
2023-05-04T05:29:48.701Z,9.719560
2023-05-04T05:30:48.774Z,9.719381
2023-05-04T05:31:48.678Z,9.719259
2023-05-04T05:32:49.573Z,9.719401
2023-05-04T05:33:49.653Z,9.719427
2023-05-04T05:34:48.646Z,9.719331
2023-05-04T05:35:48.649Z,9.719307
2023-05-04T05:36:48.611Z,9.719428
2023-05-04T05:37:48.757Z,9.719385
2023-05-04T05:38:50.351Z,9.719398
2023-05-04T05:39:48.590Z,9.719363
2023-05-04T05:40:48.586Z,9.719461
2023-05-04T05:41:48.566Z,9.719545
2023-05-04T05:42:48.588Z,9.719520
2023-05-04T05:43:48.576Z,9.719528
2023-05-04T05:44:48.575Z,9.719543
2023-05-04T05:45:48.566Z,9.719351
2023-05-04T05:46:48.608Z,9.719255
2023-05-04T05:47:48.531Z,9.719318
2023-05-04T05:48:48.512Z,9.719234
2023-05-04T05:49:48.517Z,9.719191
2023-05-04T05:50:48.506Z,9.719220
2023-05-04T05:51:48.469Z,9.719090
2023-05-04T05:52:48.468Z,9.719284
2023-05-04T05:53:48.442Z,9.719331
2023-05-04T05:54:48.468Z,9.719193
2023-05-04T05:55:48.428Z,9.719392
2023-05-04T05:56:48.435Z,9.719375
2023-05-04T05:57:48.406Z,9.719323
2023-05-04T05:58:48.388Z,9.719385
2023-05-04T05:59:49.407Z,9.719154
2023-05-04T06:00:48.393Z,9.719330
2023-05-04T06:01:48.466Z,9.719218
2023-05-04T06:02:48.462Z,9.719308
2023-05-04T06:03:48.563Z,9.719182
2023-05-04T06:04:48.413Z,9.719256
2023-05-04T06:05:48.342Z,9.719212
2023-05-04T06:06:48.345Z,9.719224
2023-05-04T06:07:48.325Z,9.719310
2023-05-04T06:08:48.301Z,9.719356
2023-05-04T06:09:48.281Z,9.719525
2023-05-04T06:10:48.273Z,9.719357
2023-05-04T06:11:48.289Z,9.719215
2023-05-04T06:12:48.351Z,9.719201
2023-05-04T06:13:48.247Z,9.719191
2023-05-04T06:14:48.232Z,9.719174
2023-05-04T06:15:48.259Z,9.719231
2023-05-04T06:16:48.306Z,9.719213
2023-05-04T06:17:48.259Z,9.719144
2023-05-04T06:18:48.229Z,9.719160
2023-05-04T06:19:50.781Z,9.719074
2023-05-04T06:20:49.187Z,9.719042
2023-05-04T06:21:48.176Z,9.719101
2023-05-04T06:22:48.170Z,9.719082
2023-05-04T06:23:48.287Z,9.719116
2023-05-04T06:24:48.150Z,9.719173
2023-05-04T06:25:48.137Z,9.719191
2023-05-04T06:26:48.129Z,9.719244
2023-05-04T06:27:48.104Z,9.719208
2023-05-04T06:28:48.113Z,9.719206
2023-05-04T06:29:48.091Z,9.719158
2023-05-04T06:30:48.084Z,9.718999
2023-05-04T06:31:48.446Z,9.719165
2023-05-04T06:32:49.149Z,9.719187
2023-05-04T06:33:48.071Z,9.719151
2023-05-04T06:34:48.028Z,9.719179
2023-05-04T06:35:49.031Z,9.719297
2023-05-04T06:36:48.012Z,9.719170
2023-05-04T06:37:48.014Z,9.719034
2023-05-04T06:38:48.027Z,9.719219
2023-05-04T06:39:47.997Z,9.719318
2023-05-04T06:40:47.995Z,9.719210
2023-05-04T06:41:48.006Z,9.719185
2023-05-04T06:42:47.963Z,9.719254
2023-05-04T06:43:47.983Z,9.718966
2023-05-04T06:44:47.952Z,9.719055
2023-05-04T06:45:47.974Z,9.719254
2023-05-04T06:46:47.955Z,9.719353
2023-05-04T06:47:48.038Z,9.719331
2023-05-04T06:48:47.924Z,9.719253
2023-05-04T06:49:47.890Z,9.719205
2023-05-04T06:50:47.932Z,9.719250
2023-05-04T06:51:47.922Z,9.719094
2023-05-04T06:52:47.877Z,9.719113
2023-05-04T06:53:47.860Z,9.719000
2023-05-04T06:54:47.843Z,9.719121
2023-05-04T06:55:48.092Z,9.719105
2023-05-04T06:56:47.855Z,9.719095
2023-05-04T06:57:47.810Z,9.719268
2023-05-04T06:58:47.809Z,9.719231
2023-05-04T06:59:47.783Z,9.719240
2023-05-04T07:00:47.778Z,9.719240
2023-05-04T07:01:47.807Z,9.719392
2023-05-04T07:02:47.796Z,9.719352
2023-05-04T07:03:47.818Z,9.719196
2023-05-04T07:04:48.760Z,9.719383
2023-05-04T07:05:47.764Z,9.719340
2023-05-04T07:06:47.723Z,9.719322
2023-05-04T07:07:48.627Z,9.719321
2023-05-04T07:08:47.725Z,9.719385
2023-05-04T07:09:47.695Z,9.719501
2023-05-04T07:10:47.676Z,9.719397
2023-05-04T07:11:47.762Z,9.719463
2023-05-04T07:12:47.673Z,9.719381
2023-05-04T07:13:47.662Z,9.719229
2023-05-04T07:14:47.681Z,9.719245
2023-05-04T07:15:47.629Z,9.719515
2023-05-04T07:16:47.647Z,9.719341
2023-05-04T07:17:47.627Z,9.719534
2023-05-04T07:18:47.599Z,9.719532
2023-05-04T07:19:47.618Z,9.719514
2023-05-04T07:20:47.613Z,9.719460
2023-05-04T07:21:47.626Z,9.719284
2023-05-04T07:22:47.570Z,9.719157
2023-05-04T07:23:47.574Z,9.719360
2023-05-04T07:24:47.577Z,9.719328
2023-05-04T07:25:47.616Z,9.719174
2023-05-04T07:26:47.521Z,9.719247
2023-05-04T07:27:47.524Z,9.719373
2023-05-04T07:28:47.505Z,9.719257
2023-05-04T07:29:47.501Z,9.719225
2023-05-04T07:30:47.520Z,9.719343
2023-05-04T07:31:47.505Z,9.719282
2023-05-04T07:32:47.489Z,9.719270
2023-05-04T07:33:47.477Z,9.719409
2023-05-04T07:34:47.472Z,9.719336
2023-05-04T07:35:47.429Z,9.719206
2023-05-04T07:36:47.421Z,9.719194
2023-05-04T07:37:47.403Z,9.719330
2023-05-04T07:38:47.405Z,9.719507
2023-05-04T07:39:47.429Z,9.719287
2023-05-04T07:40:47.388Z,9.719218
2023-05-04T07:41:48.807Z,9.719319
2023-05-04T07:42:47.350Z,9.719451
2023-05-04T07:43:47.517Z,9.719571
2023-05-04T07:44:47.333Z,9.719397
2023-05-04T07:45:47.362Z,9.719399
2023-05-04T07:46:47.314Z,9.719354
2023-05-04T07:47:47.364Z,9.719090
2023-05-04T07:48:47.418Z,9.719208
2023-05-04T07:49:47.305Z,9.719396
2023-05-04T07:50:47.287Z,9.719379
2023-05-04T07:51:47.276Z,9.719390
2023-05-04T07:52:47.262Z,9.719328
2023-05-04T07:53:47.282Z,9.719347
2023-05-04T07:54:47.256Z,9.719338
2023-05-04T07:55:47.241Z,9.719400
2023-05-04T07:56:47.252Z,9.719360
2023-05-04T07:57:47.886Z,9.719221
2023-05-04T07:58:47.229Z,9.719231
2023-05-04T07:59:47.184Z,9.719322
2023-05-04T08:00:48.202Z,9.719296
2023-05-04T08:01:47.305Z,9.719343
2023-05-04T08:02:47.248Z,9.719363
2023-05-04T08:03:47.156Z,9.719188
2023-05-04T08:04:47.180Z,9.719242
2023-05-04T08:05:47.311Z,9.719364
2023-05-04T08:06:47.139Z,9.719532
2023-05-04T08:07:47.178Z,9.719300
2023-05-04T08:08:47.106Z,9.719093
2023-05-04T08:09:47.111Z,9.719183
2023-05-04T08:10:47.150Z,9.719271
2023-05-04T08:11:48.151Z,9.719343
2023-05-04T08:12:48.119Z,9.719323
2023-05-04T08:13:47.051Z,9.719351
2023-05-04T08:14:47.049Z,9.719281
2023-05-04T08:15:47.164Z,9.719235
2023-05-04T08:16:47.019Z,9.719145
2023-05-04T08:17:47.051Z,9.719304
2023-05-04T08:18:47.007Z,9.719282
2023-05-04T08:19:47.041Z,9.719138
2023-05-04T08:20:46.992Z,9.719131
2023-05-04T08:21:46.985Z,9.719094
2023-05-04T08:22:46.978Z,9.719207
2023-05-04T08:23:47.001Z,9.719194
2023-05-04T08:24:46.977Z,9.719311
2023-05-04T08:25:46.939Z,9.719265
2023-05-04T08:26:55.567Z,9.719156
2023-05-04T08:27:48.947Z,9.719005
2023-05-04T08:28:46.927Z,9.719061
2023-05-04T08:29:46.939Z,9.719055
2023-05-04T08:30:46.920Z,9.719151
2023-05-04T08:31:46.970Z,9.719160
2023-05-04T08:32:46.914Z,9.719118
2023-05-04T08:33:46.902Z,9.719131
2023-05-04T08:34:46.872Z,9.719094
2023-05-04T08:35:46.862Z,9.719238
2023-05-04T08:36:46.844Z,9.719212
2023-05-04T08:37:46.837Z,9.719147
2023-05-04T08:38:46.843Z,9.719129
2023-05-04T08:39:46.829Z,9.719153
2023-05-04T08:40:48.659Z,9.719296
2023-05-04T08:41:46.806Z,9.719064
2023-05-04T08:42:46.832Z,9.719074
2023-05-04T08:43:47.807Z,9.718962
2023-05-04T08:44:46.789Z,9.719049
2023-05-04T08:45:46.791Z,9.719057
2023-05-04T08:46:46.754Z,9.719278
2023-05-04T08:47:46.869Z,9.719334
2023-05-04T08:48:46.767Z,9.719294
2023-05-04T08:49:46.758Z,9.719123
2023-05-04T08:50:46.715Z,9.719220
2023-05-04T08:51:46.705Z,9.719150
2023-05-04T08:52:46.725Z,9.719274
2023-05-04T08:53:46.682Z,9.719335
2023-05-04T08:54:46.685Z,9.719129
2023-05-04T08:55:46.675Z,9.719140
2023-05-04T08:56:46.681Z,9.719211
2023-05-04T08:57:46.653Z,9.719151
2023-05-04T08:58:46.630Z,9.719181
2023-05-04T08:59:46.630Z,9.719128
2023-05-04T09:00:46.642Z,9.719051
2023-05-04T09:01:47.680Z,9.719007
2023-05-04T09:02:46.785Z,9.719031
2023-05-04T09:03:46.868Z,9.719114
2023-05-04T09:04:46.597Z,9.719155
2023-05-04T09:05:46.576Z,9.719161
2023-05-04T09:06:46.570Z,9.719217
2023-05-04T09:07:46.576Z,9.719226
2023-05-04T09:08:46.564Z,9.719159
2023-05-04T09:09:46.548Z,9.719201
2023-05-04T09:10:46.523Z,9.719011
2023-05-04T09:11:46.514Z,9.718938
2023-05-04T09:12:46.517Z,9.719133
2023-05-04T09:13:46.523Z,9.719140
2023-05-04T09:14:46.683Z,9.719126
2023-05-04T09:15:46.481Z,9.719128
2023-05-04T09:16:46.482Z,9.719115
2023-05-04T09:17:56.909Z,9.719142
2023-05-04T09:18:48.471Z,9.719247
2023-05-04T09:19:46.553Z,9.719135
2023-05-04T09:20:46.436Z,9.719167
2023-05-04T09:22:18.386Z,9.719081
2023-05-04T09:22:46.427Z,9.718953
2023-05-04T09:23:46.456Z,9.719053
2023-05-04T09:24:46.452Z,9.719063
2023-05-04T09:25:46.415Z,9.719049
2023-05-04T09:26:46.394Z,9.719209
2023-05-04T09:27:46.410Z,9.719113
2023-05-04T09:28:46.371Z,9.719146
2023-05-04T09:29:46.363Z,9.719127
2023-05-04T09:30:46.361Z,9.719210
2023-05-04T09:31:46.369Z,9.719159
2023-05-04T09:32:46.443Z,9.719163
2023-05-04T09:33:46.343Z,9.719092
2023-05-04T09:34:46.312Z,9.719132
2023-05-04T09:35:46.325Z,9.719148
2023-05-04T09:36:46.310Z,9.719134
2023-05-04T09:37:46.313Z,9.719157
2023-05-04T09:38:46.312Z,9.719204
2023-05-04T09:39:46.302Z,9.719165
2023-05-04T09:40:46.251Z,9.719208
2023-05-04T09:41:46.277Z,9.719179
2023-05-04T09:42:46.255Z,9.719213
2023-05-04T09:43:46.263Z,9.719177
2023-05-04T09:44:46.213Z,9.719175
2023-05-04T09:45:46.233Z,9.719166
2023-05-04T09:46:46.293Z,9.719185
2023-05-04T09:47:46.215Z,9.719209
2023-05-04T09:48:46.215Z,9.719218
2023-05-04T09:49:46.252Z,9.719236
2023-05-04T09:50:46.162Z,9.719273
2023-05-04T09:51:46.193Z,9.719323
2023-05-04T09:52:46.189Z,9.719294
2023-05-04T09:53:46.127Z,9.719314
2023-05-04T09:54:46.120Z,9.719234
2023-05-04T09:55:46.129Z,9.719229
2023-05-04T09:56:46.110Z,9.719296
2023-05-04T09:57:46.108Z,9.719270
2023-05-04T09:58:46.081Z,9.719312
2023-05-04T09:59:46.076Z,9.719386
2023-05-04T10:00:46.115Z,9.719416
2023-05-04T10:01:46.098Z,9.719353
2023-05-04T10:02:46.209Z,9.719293
2023-05-04T10:03:46.066Z,9.719283
2023-05-04T10:04:46.076Z,9.719291
2023-05-04T10:05:46.021Z,9.719341
2023-05-04T10:06:46.016Z,9.719355
2023-05-04T10:07:46.013Z,9.719477
2023-05-04T10:08:46.033Z,9.719443
2023-05-04T10:09:46.003Z,9.719415
2023-05-04T10:10:45.960Z,9.719379
2023-05-04T10:11:45.947Z,9.719327
2023-05-04T10:12:46.065Z,9.719188
2023-05-04T10:13:45.935Z,9.719278
2023-05-04T10:14:46.000Z,9.719262
2023-05-04T10:15:45.918Z,9.719256
2023-05-04T10:16:45.933Z,9.719273
2023-05-04T10:17:45.940Z,9.719304
2023-05-04T10:18:45.891Z,9.719357
2023-05-04T10:19:46.348Z,9.719407
2023-05-04T10:20:46.072Z,9.719341
2023-05-04T10:21:45.859Z,9.719320
2023-05-04T10:22:45.853Z,9.719345
2023-05-04T10:23:45.856Z,9.719287
2023-05-04T10:24:48.120Z,9.719293
2023-05-04T10:25:46.845Z,9.719330
2023-05-04T10:26:45.812Z,9.719462
2023-05-04T10:27:45.805Z,9.719530
2023-05-04T10:28:45.798Z,9.719445
2023-05-04T10:29:45.773Z,9.719210
2023-05-04T10:30:45.805Z,9.719277
2023-05-04T10:31:45.781Z,9.719285
2023-05-04T10:32:45.774Z,9.719442
2023-05-04T10:33:45.772Z,9.719288
2023-05-04T10:34:45.736Z,9.719281
2023-05-04T10:35:45.718Z,9.719177
2023-05-04T10:36:45.703Z,9.719222
2023-05-04T10:37:45.696Z,9.719263
2023-05-04T10:38:45.728Z,9.719194
2023-05-04T10:39:45.680Z,9.719152
2023-05-04T10:40:45.682Z,9.719135
2023-05-04T10:41:45.662Z,9.719175
2023-05-04T10:42:45.689Z,9.719201
2023-05-04T10:43:45.661Z,9.719203
2023-05-04T10:44:45.653Z,9.719170
2023-05-04T10:45:45.647Z,9.719200
2023-05-04T10:46:45.854Z,9.719077
2023-05-04T10:47:45.641Z,9.719120
2023-05-04T10:48:45.588Z,9.719190
2023-05-04T10:49:45.611Z,9.719179
2023-05-04T10:50:45.600Z,9.719116
2023-05-04T10:51:49.328Z,9.719178
2023-05-04T10:52:46.557Z,9.719295
2023-05-04T10:53:45.565Z,9.719378
2023-05-04T10:54:45.645Z,9.719175
2023-05-04T10:55:45.579Z,9.719096
2023-05-04T10:56:46.048Z,9.719222
2023-05-04T10:57:45.518Z,9.719091
2023-05-04T10:58:45.580Z,9.719026
2023-05-04T10:59:45.531Z,9.719239
2023-05-04T11:00:45.534Z,9.719069
2023-05-04T11:01:45.592Z,9.719128
2023-05-04T11:02:45.538Z,9.719439
2023-05-04T11:03:45.497Z,9.719236
2023-05-04T11:04:45.469Z,9.719161
2023-05-04T11:05:45.481Z,9.719158
2023-05-04T11:06:45.505Z,9.719267
2023-05-04T11:07:45.417Z,9.719204
2023-05-04T11:08:45.412Z,9.719095
2023-05-04T11:09:45.432Z,9.719125
2023-05-04T11:10:45.388Z,9.718936
2023-05-04T11:11:45.443Z,9.719011
2023-05-04T11:12:45.466Z,9.719037
2023-05-04T11:13:45.363Z,9.719087
2023-05-04T11:14:45.379Z,9.718981
2023-05-04T11:15:45.473Z,9.719058
2023-05-04T11:16:45.371Z,9.719134
2023-05-04T11:17:45.386Z,9.719137
2023-05-04T11:18:45.336Z,9.719327
2023-05-04T11:19:45.326Z,9.719356
2023-05-04T11:20:45.300Z,9.719494
2023-05-04T11:21:45.310Z,9.719445
2023-05-04T11:22:45.351Z,9.719341
2023-05-04T11:23:45.300Z,9.719310
2023-05-04T11:24:45.299Z,9.719349
2023-05-04T11:25:45.316Z,9.719257
2023-05-04T11:26:45.229Z,9.719454
2023-05-04T11:27:45.226Z,9.719365
2023-05-04T11:28:45.240Z,9.719240
2023-05-04T11:29:45.276Z,9.719115
2023-05-04T11:30:45.218Z,9.719153
2023-05-04T11:31:45.232Z,9.719433
2023-05-04T11:32:45.246Z,9.719300
2023-05-04T11:33:45.171Z,9.719286
2023-05-04T11:34:45.161Z,9.719222
2023-05-04T11:35:45.183Z,9.719205
2023-05-04T11:36:45.157Z,9.719167
2023-05-04T11:37:45.148Z,9.719091
2023-05-04T11:38:45.127Z,9.718926
2023-05-04T11:39:45.129Z,9.719085
2023-05-04T11:40:45.112Z,9.719128
2023-05-04T11:41:45.129Z,9.719074
2023-05-04T11:42:45.068Z,9.719047
2023-05-04T11:43:45.120Z,9.718992
2023-05-04T11:44:45.029Z,9.719028